createdAt,value
2022-11-16T00:01:29.934Z,4.19
2022-11-16T00:04:01.914Z,4.17
2022-11-16T00:06:30.993Z,4.30
2022-11-16T00:09:19.412Z,4.30
2022-11-16T00:11:50.262Z,4.24
2022-11-16T00:14:18.891Z,4.16
2022-11-16T00:16:47.578Z,4.06
2022-11-16T00:19:17.728Z,4.08
2022-11-16T00:21:46.430Z,4.10
2022-11-16T00:24:16.760Z,4.07
2022-11-16T00:26:46.259Z,4.07
2022-11-16T00:29:16.885Z,4.07
2022-11-16T00:31:46.734Z,4.05
2022-11-16T00:34:17.476Z,4.08
2022-11-16T00:36:46.683Z,4.03
2022-11-16T00:39:16.701Z,4.00
2022-11-16T00:41:48.254Z,4.01
2022-11-16T00:44:17.965Z,4.02
2022-11-16T00:46:47.015Z,4.03
2022-11-16T00:49:17.188Z,4.05
2022-11-16T00:51:46.056Z,4.01
2022-11-16T00:54:14.651Z,4.03
2022-11-16T00:56:43.318Z,4.03
2022-11-16T00:59:12.135Z,4.03
2022-11-16T01:01:40.971Z,4.05
2022-11-16T01:04:09.696Z,4.06
2022-11-16T01:06:39.674Z,4.05
2022-11-16T01:09:08.296Z,4.03
2022-11-16T01:11:54.134Z,3.96
2022-11-16T01:14:22.741Z,4.00
2022-11-16T01:16:51.921Z,3.94
2022-11-16T01:19:22.531Z,3.83
2022-11-16T01:21:52.587Z,3.83
2022-11-16T01:24:21.197Z,3.85
2022-11-16T01:26:49.876Z,3.92
2022-11-16T01:29:19.119Z,4.01
2022-11-16T01:31:54.950Z,4.07
2022-11-16T01:34:24.328Z,4.14
2022-11-16T01:36:56.775Z,4.14
2022-11-16T01:39:27.959Z,4.20
2022-11-16T01:42:01.652Z,4.20
2022-11-16T01:44:56.420Z,4.12
2022-11-16T01:47:25.238Z,4.06
2022-11-16T01:49:58.805Z,4.06
2022-11-16T01:52:36.162Z,3.93
2022-11-16T01:55:06.198Z,4.09
2022-11-16T01:57:48.962Z,3.61
2022-11-16T02:00:19.148Z,4.20
2022-11-16T02:03:00.692Z,4.26
2022-11-16T02:06:13.198Z,4.22
2022-11-16T02:09:17.568Z,4.29
2022-11-16T02:12:12.763Z,4.39
2022-11-16T02:15:00.256Z,4.38
2022-11-16T02:17:38.513Z,4.46
2022-11-16T02:20:48.519Z,4.61
2022-11-16T02:24:04.562Z,4.07
2022-11-16T02:26:57.543Z,4.69
2022-11-16T02:29:35.145Z,4.71
2022-11-16T02:32:09.213Z,4.79
2022-11-16T02:34:55.692Z,4.79
2022-11-16T02:37:28.155Z,4.79
2022-11-16T02:40:01.677Z,4.89
2022-11-16T02:42:36.145Z,4.52
2022-11-16T02:45:13.653Z,4.98
2022-11-16T02:47:44.865Z,4.98
2022-11-16T02:50:18.015Z,5.06
2022-11-16T02:52:46.902Z,5.11
2022-11-16T02:55:15.848Z,5.16
2022-11-16T02:57:52.845Z,5.23
2022-11-16T03:00:30.960Z,5.29
2022-11-16T03:03:16.596Z,4.73
2022-11-16T03:05:50.928Z,5.15
2022-11-16T03:08:26.423Z,5.15
2022-11-16T03:11:17.920Z,5.12
2022-11-16T03:13:47.991Z,5.18
2022-11-16T03:16:24.525Z,5.14
2022-11-16T03:18:56.752Z,4.76
2022-11-16T03:21:35.877Z,5.23
2022-11-16T03:24:04.864Z,5.28
2022-11-16T03:26:43.457Z,5.15
2022-11-16T03:29:22.831Z,5.29
2022-11-16T03:32:01.050Z,5.30
2022-11-16T03:34:34.291Z,5.29
2022-11-16T03:37:04.091Z,5.32
2022-11-16T03:39:38.157Z,5.37
2022-11-16T03:42:14.975Z,5.40
2022-11-16T03:44:47.261Z,5.36
2022-11-16T03:47:17.641Z,5.36
2022-11-16T03:49:52.837Z,5.44
2022-11-16T03:52:22.303Z,5.37
2022-11-16T03:54:52.405Z,5.43
2022-11-16T03:57:21.088Z,5.42
2022-11-16T03:59:56.152Z,5.51
2022-11-16T04:02:26.183Z,5.57
2022-11-16T04:05:15.220Z,5.54
2022-11-16T04:08:02.886Z,5.51
2022-11-16T04:10:50.305Z,5.51
2022-11-16T04:13:43.425Z,5.54
2022-11-16T04:16:30.116Z,5.64
2022-11-16T04:19:18.898Z,5.68
2022-11-16T04:22:08.914Z,5.66
2022-11-16T04:24:41.476Z,5.64
2022-11-16T04:27:31.048Z,5.64
2022-11-16T04:30:02.408Z,5.67
2022-11-16T04:32:51.925Z,5.71
2022-11-16T04:35:41.672Z,5.67
2022-11-16T04:38:11.694Z,5.59
2022-11-16T04:40:40.421Z,5.61
2022-11-16T04:43:10.994Z,5.64
2022-11-16T04:45:59.764Z,5.68
2022-11-16T04:48:36.016Z,5.72
2022-11-16T04:51:07.438Z,5.72
2022-11-16T04:53:36.771Z,5.67
2022-11-16T04:56:19.245Z,5.72
2022-11-16T04:58:48.999Z,5.70
2022-11-16T05:01:18.203Z,5.71
2022-11-16T05:03:46.922Z,5.71
2022-11-16T05:06:17.259Z,5.76
2022-11-16T05:08:46.017Z,5.84
2022-11-16T05:11:14.674Z,5.83
2022-11-16T05:13:43.584Z,5.72
2022-11-16T05:16:12.274Z,5.76
2022-11-16T05:18:42.126Z,5.73
2022-11-16T05:21:10.463Z,5.66
2022-11-16T05:23:59.050Z,5.68
2022-11-16T05:26:32.119Z,5.71
2022-11-16T05:29:01.397Z,5.64
2022-11-16T05:31:29.993Z,5.73
2022-11-16T05:33:59.156Z,5.77
2022-11-16T05:36:27.801Z,5.81
2022-11-16T05:38:58.781Z,5.84
2022-11-16T05:41:30.842Z,5.87
2022-11-16T05:44:00.603Z,5.88
2022-11-16T05:46:29.553Z,5.94
2022-11-16T05:49:01.158Z,5.92
2022-11-16T05:51:29.929Z,6.02
2022-11-16T05:54:02.471Z,6.06
2022-11-16T05:56:32.139Z,6.02
2022-11-16T05:59:01.383Z,6.10
2022-11-16T06:01:30.317Z,6.18
2022-11-16T06:04:01.710Z,6.22
2022-11-16T06:06:31.606Z,6.27
2022-11-16T06:09:01.758Z,6.25
2022-11-16T06:11:36.047Z,6.26
2022-11-16T06:14:06.949Z,6.29
2022-11-16T06:16:37.018Z,6.35
2022-11-16T06:19:09.189Z,6.35
2022-11-16T06:21:38.460Z,6.37
2022-11-16T06:24:13.978Z,6.34
2022-11-16T06:26:44.106Z,6.37
2022-11-16T06:29:12.876Z,6.40
2022-11-16T06:31:41.585Z,6.35
2022-11-16T06:34:10.390Z,6.33
2022-11-16T06:36:38.998Z,6.38
2022-11-16T06:39:07.965Z,6.43
2022-11-16T06:41:41.667Z,6.48
2022-11-16T06:44:12.926Z,6.49
2022-11-16T06:46:49.428Z,6.42
2022-11-16T06:49:18.078Z,6.38
2022-11-16T06:51:48.046Z,6.30
2022-11-16T06:54:17.111Z,6.35
2022-11-16T06:56:47.105Z,6.39
2022-11-16T06:59:15.757Z,6.47
2022-11-16T07:01:45.272Z,6.52
2022-11-16T07:04:16.541Z,6.49
2022-11-16T07:06:51.662Z,6.51
2022-11-16T07:09:20.660Z,6.50
2022-11-16T07:11:51.233Z,6.52
2022-11-16T07:14:21.600Z,6.53
2022-11-16T07:16:54.876Z,6.57
2022-11-16T07:19:26.662Z,6.61
2022-11-16T07:21:55.523Z,6.61
2022-11-16T07:24:25.130Z,6.69
2022-11-16T07:26:55.265Z,6.66
2022-11-16T07:29:27.540Z,6.60
2022-11-16T07:32:25.189Z,6.65
2022-11-16T07:35:26.151Z,6.72
2022-11-16T07:37:54.977Z,6.77
2022-11-16T07:40:24.187Z,6.77
2022-11-16T07:42:54.386Z,6.86
2022-11-16T07:46:21.330Z,6.79
2022-11-16T07:48:47.637Z,6.85
2022-11-16T07:51:20.601Z,6.91
2022-11-16T07:54:02.341Z,6.89
2022-11-16T07:56:30.942Z,6.94
2022-11-16T07:59:01.516Z,6.99
2022-11-16T08:01:34.397Z,6.93
2022-11-16T08:04:03.240Z,6.85
2022-11-16T08:06:32.912Z,6.87
2022-11-16T08:09:02.129Z,6.82
2022-11-16T08:11:32.611Z,6.75
2022-11-16T08:14:02.733Z,6.86
2022-11-16T08:16:33.303Z,6.93
2022-11-16T08:19:10.317Z,6.99
2022-11-16T08:21:39.616Z,6.77
2022-11-16T08:24:09.806Z,6.73
2022-11-16T08:26:42.465Z,6.81
2022-11-16T08:29:15.998Z,6.75
2022-11-16T08:31:50.555Z,6.70
2022-11-16T08:34:21.825Z,6.68
2022-11-16T08:36:58.215Z,6.79
2022-11-16T08:39:37.343Z,6.85
2022-11-16T08:42:06.192Z,6.79
2022-11-16T08:44:36.186Z,6.83
2022-11-16T08:47:09.640Z,6.80
2022-11-16T08:49:49.216Z,6.88
2022-11-16T08:52:19.418Z,6.89
2022-11-16T08:54:48.680Z,6.79
2022-11-16T08:57:18.502Z,6.68
2022-11-16T08:59:53.435Z,6.76
2022-11-16T09:02:25.589Z,6.66
2022-11-16T09:04:54.776Z,6.76
2022-11-16T09:07:23.571Z,6.76
2022-11-16T09:09:52.338Z,6.62
2022-11-16T09:12:21.017Z,6.68
2022-11-16T09:14:49.864Z,6.67
2022-11-16T09:17:23.122Z,6.73
2022-11-16T09:19:52.055Z,6.87
2022-11-16T09:22:20.889Z,6.91
2022-11-16T09:24:50.057Z,6.98
2022-11-16T09:27:19.018Z,6.95
2022-11-16T09:29:47.679Z,7.03
2022-11-16T09:32:16.330Z,7.14
2022-11-16T09:34:46.291Z,7.01
2022-11-16T09:37:15.386Z,6.91
2022-11-16T09:39:43.938Z,6.76
2022-11-16T09:42:34.211Z,6.62
2022-11-16T09:45:07.681Z,6.49
2022-11-16T09:47:49.195Z,6.56
2022-11-16T09:50:48.404Z,6.58
2022-11-16T09:53:38.579Z,6.64
2022-11-16T09:56:19.178Z,6.53
2022-11-16T09:58:56.957Z,6.87
2022-11-16T10:01:30.773Z,6.78
2022-11-16T10:04:06.558Z,6.79
2022-11-16T10:06:48.625Z,6.70
2022-11-16T10:09:17.618Z,6.87
2022-11-16T10:11:57.452Z,6.94
2022-11-16T10:14:48.569Z,7.05
2022-11-16T10:17:26.404Z,7.03
2022-11-16T10:19:57.649Z,7.03
2022-11-16T10:22:42.236Z,7.12
2022-11-16T10:25:17.697Z,7.10
2022-11-16T10:28:11.411Z,7.04
2022-11-16T10:30:54.099Z,6.87
2022-11-16T10:33:26.553Z,6.91
2022-11-16T10:35:55.978Z,6.81
2022-11-16T10:38:30.334Z,6.97
2022-11-16T10:41:03.806Z,6.97
2022-11-16T10:43:34.195Z,6.91
2022-11-16T10:46:13.814Z,6.91
2022-11-16T10:48:50.808Z,6.94
2022-11-16T10:51:19.626Z,6.96
2022-11-16T10:53:49.577Z,7.05
2022-11-16T10:56:22.984Z,7.10
2022-11-16T10:58:57.124Z,7.06
2022-11-16T11:01:37.417Z,7.10
2022-11-16T11:04:21.955Z,7.16
2022-11-16T11:06:52.830Z,7.05
2022-11-16T11:09:28.896Z,7.00
2022-11-16T11:12:20.860Z,6.99
2022-11-16T11:15:06.776Z,7.01
2022-11-16T11:17:36.851Z,7.09
2022-11-16T11:20:09.410Z,7.06
2022-11-16T11:22:48.368Z,7.18
2022-11-16T11:25:25.898Z,6.97
2022-11-16T11:28:07.042Z,6.43
2022-11-16T11:30:36.714Z,7.04
2022-11-16T11:33:12.598Z,7.01
2022-11-16T11:35:41.272Z,6.82
2022-11-16T11:38:15.758Z,6.77
2022-11-16T11:40:58.855Z,6.62
2022-11-16T11:43:29.836Z,6.69
2022-11-16T11:46:10.707Z,6.74
2022-11-16T11:48:48.143Z,6.67
2022-11-16T11:51:23.632Z,6.75
2022-11-16T11:53:56.203Z,6.68
2022-11-16T11:56:27.576Z,6.72
2022-11-16T11:58:57.506Z,6.62
2022-11-16T12:02:20.915Z,6.43
2022-11-16T12:05:22.693Z,6.52
2022-11-16T12:08:07.613Z,6.57
2022-11-16T12:10:48.370Z,6.56
2022-11-16T12:13:49.246Z,6.56
2022-11-16T12:16:27.940Z,6.65
2022-11-16T12:19:33.366Z,6.63
2022-11-16T12:22:15.839Z,6.62
2022-11-16T12:24:58.450Z,6.50
2022-11-16T12:27:35.441Z,6.54
2022-11-16T12:30:12.454Z,6.58
2022-11-16T12:33:00.878Z,6.56
2022-11-16T12:35:55.896Z,6.67
2022-11-16T12:38:52.031Z,6.60
2022-11-16T12:41:43.484Z,6.45
2022-11-16T12:44:18.095Z,6.36
2022-11-16T12:46:59.968Z,6.36
2022-11-16T12:49:52.406Z,6.50
2022-11-16T12:52:35.067Z,6.40
2022-11-16T12:55:26.853Z,6.36
2022-11-16T12:58:12.016Z,6.39
2022-11-16T13:00:53.592Z,6.38
2022-11-16T13:03:30.434Z,6.35
2022-11-16T13:06:03.372Z,6.38
2022-11-16T13:08:45.161Z,6.16
2022-11-16T13:11:19.385Z,6.26
2022-11-16T13:13:53.833Z,6.24
2022-11-16T13:16:24.009Z,6.32
2022-11-16T13:18:55.059Z,6.32
2022-11-16T13:21:32.792Z,6.17
2022-11-16T13:24:31.544Z,6.14
2022-11-16T13:27:14.113Z,6.08
2022-11-16T13:29:49.107Z,6.12
2022-11-16T13:32:24.102Z,6.03
2022-11-16T13:34:54.696Z,6.03
2022-11-16T13:37:49.420Z,5.72
2022-11-16T13:40:27.212Z,6.23
2022-11-16T13:43:06.426Z,6.09
2022-11-16T13:45:39.031Z,6.13
2022-11-16T13:48:18.936Z,6.12
2022-11-16T13:50:55.168Z,6.10
2022-11-16T13:56:28.560Z,6.11
2022-11-16T13:58:58.727Z,6.09
2022-11-16T14:01:47.260Z,6.12
2022-11-16T14:04:54.578Z,6.09
2022-11-16T14:07:49.991Z,6.14
2022-11-16T14:10:55.487Z,6.18
2022-11-16T14:13:44.193Z,5.90
2022-11-16T14:16:45.775Z,6.18
2022-11-16T14:20:04.661Z,6.20
2022-11-16T14:23:02.120Z,6.19
2022-11-16T14:25:43.186Z,6.24
2022-11-16T14:28:39.241Z,6.26
2022-11-16T14:31:16.569Z,6.22
2022-11-16T14:33:51.133Z,6.13
2022-11-16T14:36:34.943Z,6.10
2022-11-16T14:39:27.347Z,6.09
2022-11-16T14:41:58.667Z,6.13
2022-11-16T14:44:30.645Z,6.13
2022-11-16T14:46:59.519Z,6.04
2022-11-16T14:49:30.242Z,6.03
2022-11-16T14:52:02.325Z,6.09
2022-11-16T14:54:39.154Z,6.12
2022-11-16T14:57:14.131Z,6.08
2022-11-16T14:59:42.748Z,6.11
2022-11-16T15:02:21.276Z,6.09
2022-11-16T15:04:51.086Z,6.09
2022-11-16T15:07:20.507Z,6.14
2022-11-16T15:09:52.358Z,6.17
2022-11-16T15:12:46.278Z,6.13
2022-11-16T15:15:23.580Z,6.13
2022-11-16T15:18:07.299Z,6.05
2022-11-16T15:20:39.385Z,6.12
2022-11-16T15:23:15.340Z,6.10
2022-11-16T15:25:52.518Z,6.10
2022-11-16T15:28:25.081Z,6.15
2022-11-16T15:30:56.061Z,6.17
2022-11-16T15:33:30.152Z,6.13
2022-11-16T15:35:59.265Z,6.06
2022-11-16T15:38:29.967Z,6.13
2022-11-16T15:41:02.618Z,6.10
2022-11-16T15:43:40.986Z,6.02
2022-11-16T15:46:15.990Z,6.11
2022-11-16T15:48:45.532Z,6.03
2022-11-16T15:51:17.716Z,6.01
2022-11-16T15:53:48.345Z,5.99
2022-11-16T15:56:22.708Z,6.04
2022-11-16T15:58:52.155Z,6.03
2022-11-16T16:01:22.670Z,6.07
2022-11-16T16:03:57.764Z,6.09
2022-11-16T16:06:48.410Z,6.03
2022-11-16T16:09:26.740Z,6.03
2022-11-16T16:12:16.594Z,6.05
2022-11-16T16:14:45.827Z,6.03
2022-11-16T16:17:25.401Z,6.03
2022-11-16T16:19:59.403Z,6.01
2022-11-16T16:22:30.702Z,6.01
2022-11-16T16:25:01.475Z,6.05
2022-11-16T16:27:41.323Z,5.96
2022-11-16T16:30:14.515Z,6.00
2022-11-16T16:32:43.249Z,5.99
2022-11-16T16:35:19.124Z,5.99
2022-11-16T16:37:50.901Z,5.87
2022-11-16T16:40:21.822Z,5.92
2022-11-16T16:42:53.275Z,5.89
2022-11-16T16:45:27.161Z,5.91
2022-11-16T16:47:56.076Z,5.91
2022-11-16T16:50:25.026Z,5.89
2022-11-16T16:52:54.908Z,5.94
2022-11-16T16:55:23.502Z,6.00
2022-11-16T16:57:53.991Z,5.96
2022-11-16T17:00:22.786Z,5.98
2022-11-16T17:02:51.606Z,5.91
2022-11-16T17:05:20.244Z,5.97
2022-11-16T17:07:48.842Z,5.90
2022-11-16T17:10:18.302Z,5.93
2022-11-16T17:12:47.163Z,5.90
2022-11-16T17:15:19.518Z,5.96
2022-11-16T17:17:48.407Z,5.93
2022-11-16T17:20:17.298Z,5.85
2022-11-16T17:22:46.135Z,5.80
2022-11-16T17:25:14.943Z,5.82
2022-11-16T17:27:43.845Z,5.88
2022-11-16T17:30:14.180Z,5.96
2022-11-16T17:32:44.624Z,5.96
2022-11-16T17:35:13.815Z,5.90
2022-11-16T17:37:42.452Z,5.88
2022-11-16T17:40:11.865Z,5.91
2022-11-16T17:42:40.570Z,5.91
2022-11-16T17:45:09.984Z,5.80
2022-11-16T17:47:39.185Z,5.85
2022-11-16T17:50:11.347Z,5.92
2022-11-16T17:52:40.671Z,5.86
2022-11-16T17:55:10.565Z,5.90
2022-11-16T17:57:39.785Z,5.85
2022-11-16T18:00:11.011Z,5.86
2022-11-16T18:02:39.863Z,5.90
2022-11-16T18:05:10.700Z,5.88
2022-11-16T18:07:41.335Z,5.88
2022-11-16T18:10:16.300Z,5.87
2022-11-16T18:12:48.059Z,5.89
2022-11-16T18:15:36.503Z,5.86
2022-11-16T18:18:08.509Z,5.90
2022-11-16T18:20:39.227Z,5.90
2022-11-16T18:23:08.278Z,5.87
2022-11-16T18:25:38.050Z,5.92
2022-11-16T18:28:07.084Z,5.97
2022-11-16T18:30:36.411Z,5.93
2022-11-16T18:33:08.810Z,5.96
2022-11-16T18:35:39.425Z,5.97
2022-11-16T18:38:13.178Z,5.97
2022-11-16T18:40:42.073Z,5.87
2022-11-16T18:43:14.452Z,5.85
2022-11-16T18:45:44.305Z,5.88
2022-11-16T18:48:16.508Z,5.77
2022-11-16T18:50:47.482Z,5.82
2022-11-16T18:53:16.331Z,5.90
2022-11-16T18:55:54.896Z,5.85
2022-11-16T19:01:18.195Z,5.80
2022-11-16T19:03:47.251Z,5.81
2022-11-16T19:06:18.096Z,5.75
2022-11-16T19:08:53.611Z,5.69
2022-11-16T19:11:24.937Z,5.71
2022-11-16T19:13:55.964Z,5.72
2022-11-16T19:16:25.908Z,5.78
2022-11-16T19:18:54.977Z,5.78
2022-11-16T19:21:26.101Z,5.81
2022-11-16T19:23:57.009Z,5.75
2022-11-16T19:26:28.548Z,5.76
2022-11-16T19:28:57.825Z,5.72
2022-11-16T19:31:28.956Z,5.77
2022-11-16T19:33:59.392Z,5.76
2022-11-16T19:36:31.519Z,5.74
2022-11-16T19:39:00.524Z,5.76
2022-11-16T19:41:29.564Z,5.68
2022-11-16T19:44:01.748Z,5.68
2022-11-16T19:46:33.180Z,5.68
2022-11-16T19:49:02.912Z,5.71
2022-11-16T19:51:34.556Z,5.71
2022-11-16T19:54:04.375Z,5.67
2022-11-16T19:56:33.001Z,5.69
2022-11-16T19:59:01.682Z,5.70
2022-11-16T20:01:30.738Z,5.75
2022-11-16T20:04:00.725Z,5.74
2022-11-16T20:06:31.319Z,5.79
2022-11-16T20:09:04.082Z,5.81
2022-11-16T20:11:34.729Z,5.76
2022-11-16T20:14:05.019Z,5.76
2022-11-16T20:16:38.748Z,5.78
2022-11-16T20:19:08.750Z,5.83
2022-11-16T20:21:38.953Z,5.84
2022-11-16T20:24:11.660Z,5.76
2022-11-16T20:26:44.640Z,5.72
2022-11-16T20:29:21.706Z,5.73
2022-11-16T20:31:50.490Z,5.77
2022-11-16T20:34:20.703Z,5.77
2022-11-16T20:36:50.977Z,5.79
2022-11-16T20:39:24.859Z,5.75
2022-11-16T20:41:53.673Z,5.81
2022-11-16T20:44:22.609Z,5.88
2022-11-16T20:46:52.422Z,5.82
2022-11-16T20:49:21.195Z,5.82
2022-11-16T20:51:51.126Z,5.83
2022-11-16T20:54:21.363Z,5.81
2022-11-16T20:56:50.587Z,5.75
2022-11-16T20:59:19.258Z,5.68
2022-11-16T21:01:48.866Z,5.74
2022-11-16T21:04:18.091Z,5.67
2022-11-16T21:06:46.974Z,5.74
2022-11-16T21:09:22.462Z,5.72
2022-11-16T21:12:10.122Z,5.67
2022-11-16T21:14:38.875Z,5.64
2022-11-16T21:17:07.488Z,5.69
2022-11-16T21:19:36.103Z,5.69
2022-11-16T21:22:04.801Z,5.57
2022-11-16T21:24:34.709Z,5.58
2022-11-16T21:27:04.831Z,5.46
2022-11-16T21:29:33.492Z,5.45
2022-11-16T21:32:02.860Z,5.34
2022-11-16T21:34:35.894Z,5.34
2022-11-16T21:37:07.562Z,5.36
2022-11-16T21:39:36.254Z,5.32
2022-11-16T21:42:06.595Z,5.36
2022-11-16T21:44:41.978Z,5.43
2022-11-16T21:47:11.184Z,5.38
2022-11-16T21:50:02.414Z,5.29
2022-11-16T21:52:28.952Z,5.27
2022-11-16T21:55:00.365Z,5.20
2022-11-16T21:57:30.563Z,5.24
2022-11-16T22:00:00.986Z,5.25
2022-11-16T22:02:31.919Z,5.19
2022-11-16T22:05:17.040Z,5.24
2022-11-16T22:07:45.931Z,5.22
2022-11-16T22:10:15.275Z,5.16
2022-11-16T22:12:45.314Z,5.16
2022-11-16T22:15:13.960Z,5.11
2022-11-16T22:17:46.539Z,5.12
2022-11-16T22:20:15.368Z,5.07
2022-11-16T22:22:43.967Z,5.07
2022-11-16T22:25:14.087Z,5.11
2022-11-16T22:28:18.542Z,5.09
2022-11-16T22:30:36.167Z,5.08
2022-11-16T22:33:04.838Z,5.07
2022-11-16T22:35:33.438Z,4.97
2022-11-16T22:38:04.232Z,4.98
2022-11-16T22:40:33.212Z,5.06
2022-11-16T22:43:03.197Z,4.90
2022-11-16T22:45:31.849Z,4.95
2022-11-16T22:48:00.408Z,4.95
2022-11-16T22:50:29.027Z,4.99
2022-11-16T22:53:00.168Z,5.06
2022-11-16T22:55:28.887Z,5.00
2022-11-16T22:57:57.533Z,4.98
2022-11-16T23:00:27.479Z,5.03
2022-11-16T23:02:56.097Z,5.02
2022-11-16T23:05:24.719Z,5.08
2022-11-16T23:07:56.155Z,5.02
2022-11-16T23:10:24.796Z,4.98
2022-11-16T23:13:12.227Z,4.93
2022-11-16T23:15:50.888Z,4.95
2022-11-16T23:18:20.622Z,4.81
2022-11-16T23:21:08.839Z,4.84
2022-11-16T23:23:54.756Z,4.82
2022-11-16T23:26:42.872Z,4.78
2022-11-16T23:29:12.777Z,4.75
2022-11-16T23:31:42.698Z,4.76
2022-11-16T23:34:11.361Z,4.76
2022-11-16T23:36:39.956Z,4.75
2022-11-16T23:39:08.704Z,4.77
2022-11-16T23:41:54.666Z,4.72
2022-11-16T23:44:23.290Z,4.69
2022-11-16T23:46:53.192Z,4.71
2022-11-16T23:49:21.777Z,4.70
2022-11-16T23:51:50.335Z,4.68
2022-11-16T23:54:18.930Z,4.76
2022-11-16T23:56:47.493Z,4.70
2022-11-16T23:59:16.122Z,4.50
